createdAt,value
2022-12-04T00:01:28.343Z,6.30
2022-12-04T00:03:58.552Z,6.30
2022-12-04T00:06:27.391Z,6.10
2022-12-04T00:08:56.113Z,6.30
2022-12-04T00:11:27.160Z,6.40
2022-12-04T00:14:03.005Z,6.50
2022-12-04T00:16:35.060Z,6.50
2022-12-04T00:19:03.273Z,6.20
2022-12-04T00:21:31.714Z,6.20
2022-12-04T00:23:59.930Z,6.00
2022-12-04T00:26:31.103Z,6.00
2022-12-04T00:29:01.229Z,6.50
2022-12-04T00:31:31.573Z,5.90
2022-12-04T00:34:00.701Z,6.10
2022-12-04T00:36:31.372Z,6.00
2022-12-04T00:39:00.961Z,6.10
2022-12-04T00:41:33.927Z,6.20
2022-12-04T00:44:04.311Z,6.40
2022-12-04T00:46:32.525Z,6.30
2022-12-04T00:49:02.537Z,6.40
2022-12-04T00:51:31.332Z,6.30
2022-12-04T00:53:59.487Z,6.30
2022-12-04T00:56:29.467Z,6.00
2022-12-04T00:58:59.204Z,6.00
2022-12-04T01:01:29.846Z,6.00
2022-12-04T01:03:58.418Z,6.30
2022-12-04T01:06:28.230Z,6.10
2022-12-04T01:08:57.556Z,6.20
2022-12-04T01:11:27.001Z,6.00
2022-12-04T01:13:55.175Z,6.10
2022-12-04T01:16:25.889Z,6.10
2022-12-04T01:18:56.783Z,6.20
2022-12-04T01:21:24.968Z,6.20
2022-12-04T01:23:53.270Z,6.30
2022-12-04T01:26:22.388Z,6.40
2022-12-04T01:28:50.534Z,6.50
2022-12-04T01:31:21.335Z,6.40
2022-12-04T01:33:50.447Z,6.10
2022-12-04T01:36:24.293Z,6.20
2022-12-04T01:38:53.109Z,6.40
2022-12-04T01:41:26.934Z,6.10
2022-12-04T01:44:16.066Z,6.20
2022-12-04T01:46:45.580Z,6.10
2022-12-04T01:49:16.959Z,5.90
2022-12-04T01:51:50.985Z,5.80
2022-12-04T01:54:28.592Z,5.80
2022-12-04T01:57:03.299Z,5.90
2022-12-04T01:59:36.389Z,6.00
2022-12-04T02:02:08.229Z,6.00
2022-12-04T02:04:37.462Z,6.20
2022-12-04T02:07:07.103Z,6.10
2022-12-04T02:09:36.664Z,6.20
2022-12-04T02:12:11.991Z,6.10
2022-12-04T02:14:50.066Z,6.30
2022-12-04T02:17:25.741Z,6.20
2022-12-04T02:20:09.694Z,6.20
2022-12-04T02:23:20.826Z,6.10
2022-12-04T02:25:58.714Z,5.70
2022-12-04T02:28:34.831Z,5.80
2022-12-04T02:31:05.969Z,5.60
2022-12-04T02:33:42.683Z,5.80
2022-12-04T02:36:14.684Z,5.70
2022-12-04T02:38:46.594Z,5.60
2022-12-04T02:41:18.641Z,5.80
2022-12-04T02:43:52.172Z,5.80
2022-12-04T02:46:23.647Z,5.80
2022-12-04T02:48:54.497Z,5.90
2022-12-04T02:51:26.770Z,6.40
2022-12-04T02:53:59.192Z,5.90
2022-12-04T02:56:30.169Z,6.00
2022-12-04T02:59:02.287Z,6.10
2022-12-04T03:01:35.417Z,6.10
2022-12-04T03:04:08.577Z,6.40
2022-12-04T03:06:40.608Z,6.30
2022-12-04T03:09:13.714Z,6.20
2022-12-04T03:11:45.390Z,6.10
2022-12-04T03:14:19.463Z,6.30
2022-12-04T03:16:49.578Z,6.00
2022-12-04T03:19:21.264Z,6.10
2022-12-04T03:21:53.606Z,6.20
2022-12-04T03:24:26.263Z,6.20
2022-12-04T03:27:02.243Z,6.40
2022-12-04T03:29:36.336Z,6.70
2022-12-04T03:32:11.026Z,6.30
2022-12-04T03:34:45.881Z,6.40
2022-12-04T03:37:18.104Z,6.40
2022-12-04T03:39:56.734Z,6.60
2022-12-04T03:42:28.667Z,6.20
2022-12-04T03:45:04.236Z,6.40
2022-12-04T03:47:37.854Z,6.00
2022-12-04T03:50:15.161Z,5.90
2022-12-04T03:52:49.679Z,6.00
2022-12-04T03:55:24.261Z,6.00
2022-12-04T03:57:54.299Z,6.00
2022-12-04T04:00:24.746Z,6.00
2022-12-04T04:02:57.263Z,6.10
2022-12-04T04:05:27.049Z,6.10
2022-12-04T04:08:20.596Z,7.30
2022-12-04T04:10:49.689Z,6.10
2022-12-04T04:13:39.188Z,6.20
2022-12-04T04:16:32.962Z,6.20
2022-12-04T04:19:20.810Z,6.20
2022-12-04T04:22:09.120Z,6.00
2022-12-04T04:24:47.575Z,7.00
2022-12-04T04:27:15.956Z,6.60
2022-12-04T04:29:51.873Z,6.00
2022-12-04T04:32:28.808Z,6.80
2022-12-04T04:35:04.756Z,6.20
2022-12-04T04:37:39.787Z,6.20
2022-12-04T04:40:14.493Z,6.40
2022-12-04T04:42:50.380Z,6.30
2022-12-04T04:45:23.164Z,6.10
2022-12-04T04:47:57.995Z,7.00
2022-12-04T04:50:26.932Z,6.20
2022-12-04T04:53:00.106Z,6.30
2022-12-04T04:55:29.579Z,7.20
2022-12-04T04:58:08.090Z,6.40
2022-12-04T05:00:36.363Z,6.40
2022-12-04T05:03:06.384Z,6.20
2022-12-04T05:05:34.765Z,7.10
2022-12-04T05:08:03.213Z,6.30
2022-12-04T05:10:31.568Z,7.20
2022-12-04T05:12:59.780Z,6.60
2022-12-04T05:15:27.953Z,7.40
2022-12-04T05:17:56.148Z,6.90
2022-12-04T05:20:24.695Z,6.30
2022-12-04T05:22:52.910Z,6.40
2022-12-04T05:25:21.098Z,6.40
2022-12-04T05:27:49.304Z,6.20
2022-12-04T05:30:18.051Z,6.10
2022-12-04T05:32:46.576Z,6.30
2022-12-04T05:35:15.020Z,6.80
2022-12-04T05:37:45.626Z,6.00
2022-12-04T05:40:14.163Z,6.20
2022-12-04T05:42:42.358Z,6.20
2022-12-04T05:45:11.190Z,6.70
2022-12-04T05:47:40.270Z,6.20
2022-12-04T05:50:10.253Z,7.20
2022-12-04T05:52:38.480Z,6.40
2022-12-04T05:55:08.847Z,6.40
2022-12-04T05:57:37.040Z,6.60
2022-12-04T06:00:06.322Z,7.40
2022-12-04T06:02:39.524Z,6.20
2022-12-04T06:05:08.467Z,6.30
2022-12-04T06:07:37.025Z,6.20
2022-12-04T06:10:07.766Z,6.30
2022-12-04T06:12:35.984Z,6.40
2022-12-04T06:15:04.443Z,6.40
2022-12-04T06:17:32.678Z,6.40
2022-12-04T06:20:03.295Z,6.80
2022-12-04T06:22:34.856Z,6.40
2022-12-04T06:25:02.989Z,6.20
2022-12-04T06:27:32.485Z,6.20
2022-12-04T06:30:00.698Z,6.90
2022-12-04T06:32:29.253Z,6.80
2022-12-04T06:34:57.457Z,6.40
2022-12-04T06:37:26.557Z,5.60
2022-12-04T06:39:55.084Z,6.30
2022-12-04T06:42:23.494Z,6.20
2022-12-04T06:44:53.043Z,6.40
2022-12-04T06:47:21.197Z,6.60
2022-12-04T06:49:51.344Z,6.40
2022-12-04T06:52:19.594Z,6.80
2022-12-04T06:54:47.841Z,6.80
2022-12-04T06:57:16.027Z,6.50
2022-12-04T06:59:44.178Z,6.50
2022-12-04T07:02:13.768Z,6.50
2022-12-04T07:04:42.008Z,6.50
2022-12-04T07:07:10.931Z,6.40
2022-12-04T07:09:39.386Z,6.40
2022-12-04T07:12:08.109Z,6.50
2022-12-04T07:14:39.394Z,6.40
2022-12-04T07:17:07.590Z,6.40
2022-12-04T07:19:38.469Z,7.40
2022-12-04T07:22:08.807Z,6.80
2022-12-04T07:24:37.921Z,6.40
2022-12-04T07:27:06.454Z,6.60
2022-12-04T07:29:34.984Z,6.30
2022-12-04T07:32:03.598Z,6.40
2022-12-04T07:34:32.096Z,6.40
2022-12-04T07:37:01.701Z,6.40
2022-12-04T07:39:29.855Z,6.50
2022-12-04T07:41:58.041Z,7.20
2022-12-04T07:44:26.402Z,6.60
2022-12-04T07:46:54.573Z,6.40
2022-12-04T07:49:22.777Z,6.20
2022-12-04T07:51:50.952Z,6.20
2022-12-04T07:54:20.497Z,6.10
2022-12-04T07:56:48.615Z,6.10
2022-12-04T07:59:16.785Z,6.10
2022-12-04T08:01:45.150Z,6.00
2022-12-04T08:04:13.682Z,6.10
2022-12-04T08:06:42.242Z,7.00
2022-12-04T08:09:10.598Z,7.20
2022-12-04T08:11:40.393Z,6.30
2022-12-04T08:14:09.886Z,6.90
2022-12-04T08:16:38.268Z,6.10
2022-12-04T08:19:07.166Z,6.10
2022-12-04T08:21:35.555Z,7.20
2022-12-04T08:24:03.944Z,6.40
2022-12-04T08:26:33.683Z,7.20
2022-12-04T08:29:04.429Z,6.40
2022-12-04T08:31:34.291Z,6.40
2022-12-04T08:34:04.865Z,7.30
2022-12-04T08:36:33.733Z,6.30
2022-12-04T08:39:01.937Z,7.20
2022-12-04T08:41:30.289Z,6.10
2022-12-04T08:43:59.429Z,6.90
2022-12-04T08:46:29.379Z,6.00
2022-12-04T08:48:57.996Z,7.00
2022-12-04T08:51:28.087Z,6.30
2022-12-04T08:53:57.347Z,6.40
2022-12-04T08:56:26.491Z,6.30
2022-12-04T08:58:56.252Z,6.00
2022-12-04T09:01:25.572Z,7.00
2022-12-04T09:03:55.878Z,6.00
2022-12-04T09:06:24.876Z,6.00
2022-12-04T09:08:55.349Z,6.20
2022-12-04T09:11:25.168Z,6.40
2022-12-04T09:13:53.595Z,6.40
2022-12-04T09:16:23.675Z,7.30
2022-12-04T09:18:52.276Z,7.10
2022-12-04T09:21:23.063Z,7.00
2022-12-04T09:23:51.956Z,6.50
2022-12-04T09:26:25.982Z,7.40
2022-12-04T09:28:55.242Z,7.50
2022-12-04T09:31:25.435Z,7.20
2022-12-04T09:33:54.330Z,7.50
2022-12-04T09:36:24.331Z,7.50
2022-12-04T09:38:54.674Z,6.80
2022-12-04T09:41:39.460Z,6.70
2022-12-04T09:44:11.899Z,6.90
2022-12-04T09:46:44.596Z,6.70
2022-12-04T09:49:17.512Z,6.90
2022-12-04T09:51:48.656Z,6.70
2022-12-04T09:54:20.106Z,7.50
2022-12-04T09:56:54.669Z,7.30
2022-12-04T09:59:26.815Z,6.70
2022-12-04T10:02:01.872Z,7.60
2022-12-04T10:04:31.291Z,6.70
2022-12-04T10:07:06.031Z,6.80
2022-12-04T10:09:44.618Z,6.80
2022-12-04T10:12:24.175Z,6.70
2022-12-04T10:15:19.558Z,6.80
2022-12-04T10:18:14.001Z,6.90
2022-12-04T10:20:59.699Z,6.80
2022-12-04T10:23:39.478Z,6.80
2022-12-04T10:26:16.279Z,6.90
2022-12-04T10:28:54.879Z,7.20
2022-12-04T10:31:24.430Z,6.60
2022-12-04T10:33:56.407Z,6.60
2022-12-04T10:36:30.481Z,6.60
2022-12-04T10:39:02.343Z,6.70
2022-12-04T10:41:35.861Z,7.60
2022-12-04T10:44:04.028Z,7.30
2022-12-04T10:46:35.957Z,7.20
2022-12-04T10:49:09.469Z,7.00
2022-12-04T10:51:41.223Z,7.00
2022-12-04T10:54:21.492Z,7.00
2022-12-04T10:56:58.634Z,6.80
2022-12-04T10:59:28.009Z,6.70
2022-12-04T11:02:06.691Z,6.60
2022-12-04T11:04:36.581Z,7.00
2022-12-04T11:07:06.626Z,6.50
2022-12-04T11:09:36.928Z,6.50
2022-12-04T11:12:10.654Z,6.50
2022-12-04T11:14:42.763Z,6.70
2022-12-04T11:17:18.529Z,6.60
2022-12-04T11:19:47.205Z,6.70
2022-12-04T11:22:18.894Z,6.50
2022-12-04T11:24:56.421Z,6.60
2022-12-04T11:27:28.341Z,6.40
2022-12-04T11:29:57.597Z,6.40
2022-12-04T11:32:28.812Z,6.50
2022-12-04T11:35:01.022Z,6.50
2022-12-04T11:37:33.750Z,6.60
2022-12-04T11:40:06.228Z,6.60
2022-12-04T11:42:34.501Z,6.80
2022-12-04T11:45:04.981Z,7.00
2022-12-04T11:47:34.348Z,6.90
2022-12-04T11:50:11.478Z,6.90
2022-12-04T11:52:59.274Z,7.10
2022-12-04T11:55:35.366Z,7.10
2022-12-04T11:58:20.749Z,7.10
2022-12-04T12:00:57.111Z,7.40
2022-12-04T12:03:32.870Z,7.20
2022-12-04T12:06:30.996Z,7.20
2022-12-04T12:09:17.592Z,7.30
2022-12-04T12:11:53.021Z,7.30
2022-12-04T12:14:28.471Z,7.30
2022-12-04T12:17:04.469Z,7.30
2022-12-04T12:19:49.095Z,7.40
2022-12-04T12:22:33.667Z,7.60
2022-12-04T12:25:11.344Z,7.60
2022-12-04T12:27:56.041Z,7.60
2022-12-04T12:30:25.696Z,7.40
2022-12-04T12:33:05.932Z,7.40
2022-12-04T12:35:39.756Z,7.40
2022-12-04T12:38:12.732Z,7.40
2022-12-04T12:40:43.870Z,7.80
2022-12-04T12:43:20.998Z,7.40
2022-12-04T12:45:54.413Z,7.40
2022-12-04T12:48:29.649Z,7.50
2022-12-04T12:51:28.701Z,7.40
2022-12-04T12:53:54.424Z,7.20
2022-12-04T12:56:30.900Z,7.30
2022-12-04T12:59:04.810Z,7.70
2022-12-04T13:01:42.832Z,7.20
2022-12-04T13:04:14.473Z,7.40
2022-12-04T13:06:47.871Z,7.30
2022-12-04T13:09:25.478Z,7.20
2022-12-04T13:12:00.171Z,7.20
2022-12-04T13:14:29.781Z,7.20
2022-12-04T13:17:02.879Z,7.00
2022-12-04T13:19:35.487Z,6.90
2022-12-04T13:22:16.283Z,7.10
2022-12-04T13:25:07.153Z,7.00
2022-12-04T13:27:46.353Z,7.10
2022-12-04T13:30:19.933Z,6.90
2022-12-04T13:33:05.420Z,6.90
2022-12-04T13:36:02.312Z,7.10
2022-12-04T13:38:37.457Z,6.90
2022-12-04T13:41:08.176Z,6.90
2022-12-04T13:43:37.905Z,6.90
2022-12-04T13:46:21.318Z,7.30
2022-12-04T13:48:49.931Z,7.20
2022-12-04T13:51:34.598Z,7.10
2022-12-04T13:54:35.188Z,7.30
2022-12-04T13:57:22.055Z,7.40
2022-12-04T13:59:51.378Z,7.60
2022-12-04T14:02:32.204Z,7.30
2022-12-04T14:05:01.992Z,7.20
2022-12-04T14:07:33.782Z,7.00
2022-12-04T14:10:04.931Z,6.90
2022-12-04T14:12:35.550Z,7.00
2022-12-04T14:15:06.478Z,7.40
2022-12-04T14:17:38.134Z,7.00
2022-12-04T14:20:10.250Z,7.10
2022-12-04T14:22:44.196Z,7.30
2022-12-04T14:25:35.734Z,7.10
2022-12-04T14:28:25.959Z,6.90
2022-12-04T14:31:11.065Z,6.80
2022-12-04T14:33:45.648Z,6.90
2022-12-04T14:36:20.136Z,7.00
2022-12-04T14:38:51.803Z,6.90
2022-12-04T14:41:25.625Z,7.00
2022-12-04T14:43:53.992Z,7.10
2022-12-04T14:46:28.993Z,7.00
2022-12-04T14:49:07.774Z,7.20
2022-12-04T14:51:38.346Z,7.00
2022-12-04T14:54:20.362Z,6.80
2022-12-04T14:57:01.160Z,6.70
2022-12-04T14:59:41.471Z,6.60
2022-12-04T15:02:15.148Z,6.60
2022-12-04T15:04:46.991Z,6.50
2022-12-04T15:07:22.592Z,6.60
2022-12-04T15:10:13.708Z,6.70
2022-12-04T15:12:46.049Z,6.80
2022-12-04T15:15:19.428Z,6.90
2022-12-04T15:17:58.201Z,7.00
2022-12-04T15:20:29.905Z,7.00
2022-12-04T15:22:59.465Z,7.50
2022-12-04T15:25:32.453Z,7.10
2022-12-04T15:28:07.613Z,7.20
2022-12-04T15:30:39.603Z,6.90
2022-12-04T15:33:08.715Z,6.80
2022-12-04T15:35:43.755Z,6.80
2022-12-04T15:38:13.834Z,6.60
2022-12-04T15:40:52.288Z,6.50
2022-12-04T15:43:28.328Z,6.50
2022-12-04T15:45:56.667Z,6.60
2022-12-04T15:48:27.013Z,6.70
2022-12-04T15:51:03.376Z,6.60
2022-12-04T15:53:35.152Z,6.80
2022-12-04T15:56:06.716Z,6.90
2022-12-04T15:58:37.555Z,6.60
2022-12-04T16:01:07.980Z,6.60
2022-12-04T16:03:40.852Z,6.80
2022-12-04T16:06:17.792Z,6.70
2022-12-04T16:08:48.068Z,6.80
2022-12-04T16:11:34.142Z,6.70
2022-12-04T16:14:17.627Z,6.60
2022-12-04T16:16:48.305Z,6.60
2022-12-04T16:19:25.722Z,6.70
2022-12-04T16:21:55.465Z,6.80
2022-12-04T16:24:23.859Z,6.90
2022-12-04T16:26:54.747Z,7.00
2022-12-04T16:29:23.226Z,6.80
2022-12-04T16:31:52.346Z,6.90
2022-12-04T16:34:20.755Z,6.70
2022-12-04T16:36:48.946Z,6.70
2022-12-04T16:39:18.533Z,6.70
2022-12-04T16:41:46.612Z,6.70
2022-12-04T16:44:17.267Z,6.60
2022-12-04T16:46:51.503Z,6.70
2022-12-04T16:49:19.734Z,6.70
2022-12-04T16:51:50.560Z,6.70
2022-12-04T16:54:20.047Z,6.70
2022-12-04T16:56:48.180Z,6.80
2022-12-04T16:59:16.355Z,6.80
2022-12-04T17:01:48.794Z,6.70
2022-12-04T17:04:17.376Z,6.80
2022-12-04T17:06:46.516Z,6.80
2022-12-04T17:09:15.693Z,6.80
2022-12-04T17:11:45.872Z,6.90
2022-12-04T17:14:14.935Z,6.70
2022-12-04T17:16:46.660Z,6.70
2022-12-04T17:19:15.175Z,7.10
2022-12-04T17:21:45.040Z,6.80
2022-12-04T17:24:13.264Z,6.70
2022-12-04T17:26:41.551Z,6.60
2022-12-04T17:29:11.112Z,6.60
2022-12-04T17:31:39.572Z,6.70
2022-12-04T17:34:07.776Z,6.80
2022-12-04T17:36:35.939Z,6.60
2022-12-04T17:39:04.759Z,6.70
2022-12-04T17:41:32.942Z,6.60
2022-12-04T17:44:01.677Z,6.70
2022-12-04T17:46:31.525Z,6.60
2022-12-04T17:49:05.329Z,6.60
2022-12-04T17:51:35.870Z,7.10
2022-12-04T17:54:04.277Z,7.10
2022-12-04T17:56:32.983Z,7.00
2022-12-04T17:59:01.245Z,6.90
2022-12-04T18:01:31.153Z,6.90
2022-12-04T18:04:01.871Z,6.80
2022-12-04T18:06:32.131Z,6.80
2022-12-04T18:09:00.467Z,6.80
2022-12-04T18:11:31.302Z,6.60
2022-12-04T18:14:03.093Z,6.70
2022-12-04T18:16:36.920Z,6.70
2022-12-04T18:19:05.696Z,6.50
2022-12-04T18:21:35.275Z,7.00
2022-12-04T18:24:05.828Z,6.60
2022-12-04T18:26:35.864Z,6.60
2022-12-04T18:29:04.811Z,6.70
2022-12-04T18:31:36.023Z,6.80
2022-12-04T18:34:06.538Z,6.80
2022-12-04T18:36:36.617Z,6.80
2022-12-04T18:39:06.859Z,6.90
2022-12-04T18:41:35.489Z,6.80
2022-12-04T18:44:04.168Z,6.70
2022-12-04T18:46:33.027Z,6.70
2022-12-04T18:49:03.315Z,6.80
2022-12-04T18:51:33.133Z,6.80
2022-12-04T18:54:03.606Z,6.80
2022-12-04T18:56:33.611Z,6.70
2022-12-04T18:59:03.958Z,6.70
2022-12-04T19:01:32.477Z,7.20
2022-12-04T19:04:04.476Z,6.90
2022-12-04T19:06:34.725Z,6.50
2022-12-04T19:09:05.345Z,6.50
2022-12-04T19:11:34.012Z,6.40
2022-12-04T19:14:08.313Z,6.40
2022-12-04T19:16:40.918Z,6.40
2022-12-04T19:19:11.375Z,6.20
2022-12-04T19:21:39.727Z,6.30
2022-12-04T19:24:08.807Z,6.30
2022-12-04T19:26:36.991Z,6.30
2022-12-04T19:29:06.215Z,6.30
2022-12-04T19:31:36.413Z,6.70
2022-12-04T19:34:06.208Z,6.40
2022-12-04T19:36:36.466Z,6.50
2022-12-04T19:39:06.114Z,6.40
2022-12-04T19:41:37.107Z,6.90
2022-12-04T19:44:26.426Z,6.40
2022-12-04T19:46:54.019Z,6.40
2022-12-04T19:49:22.260Z,6.40
2022-12-04T19:51:51.850Z,6.20
2022-12-04T19:54:20.954Z,6.40
2022-12-04T19:56:52.642Z,6.40
2022-12-04T19:59:21.324Z,6.40
2022-12-04T20:01:49.609Z,6.30
2022-12-04T20:04:17.975Z,6.50
2022-12-04T20:06:47.190Z,6.70
2022-12-04T20:09:19.808Z,6.60
2022-12-04T20:11:47.957Z,6.60
2022-12-04T20:14:16.378Z,6.50
2022-12-04T20:16:44.893Z,7.00
2022-12-04T20:19:15.588Z,6.60
2022-12-04T20:21:43.944Z,6.60
2022-12-04T20:24:14.783Z,6.70
2022-12-04T20:26:45.866Z,6.90
2022-12-04T20:29:16.254Z,6.90
2022-12-04T20:31:45.814Z,6.90
2022-12-04T20:34:16.201Z,6.80
2022-12-04T20:36:46.079Z,6.80
2022-12-04T20:39:15.239Z,6.60
2022-12-04T20:41:45.036Z,6.80
2022-12-04T20:44:15.923Z,6.80
2022-12-04T20:46:44.700Z,6.90
2022-12-04T20:49:21.308Z,7.00
2022-12-04T20:51:51.723Z,7.60
2022-12-04T20:54:22.706Z,7.20
2022-12-04T20:56:53.566Z,7.20
2022-12-04T20:59:23.197Z,7.20
2022-12-04T21:01:52.559Z,7.10
2022-12-04T21:04:21.267Z,7.00
2022-12-04T21:06:50.117Z,7.00
2022-12-04T21:09:20.868Z,7.20
2022-12-04T21:11:52.298Z,7.10
2022-12-04T21:14:39.823Z,7.10
2022-12-04T21:17:11.685Z,6.80
2022-12-04T21:19:40.024Z,6.80
2022-12-04T21:22:08.236Z,6.90
2022-12-04T21:24:38.775Z,7.00
2022-12-04T21:27:14.544Z,7.00
2022-12-04T21:29:45.508Z,7.20
2022-12-04T21:32:13.669Z,7.10
2022-12-04T21:34:41.808Z,7.20
2022-12-04T21:37:09.987Z,7.20
2022-12-04T21:39:39.117Z,7.20
2022-12-04T21:42:24.792Z,7.00
2022-12-04T21:44:54.337Z,7.00
2022-12-04T21:47:22.668Z,7.10
2022-12-04T21:49:50.822Z,7.10
2022-12-04T21:52:22.761Z,7.40
2022-12-04T21:54:51.894Z,7.10
2022-12-04T21:57:20.630Z,7.10
2022-12-04T21:59:49.019Z,6.90
2022-12-04T22:02:18.581Z,7.00
2022-12-04T22:04:46.875Z,6.80
2022-12-04T22:07:15.107Z,6.80
2022-12-04T22:09:43.443Z,6.90
2022-12-04T22:12:26.780Z,7.00
2022-12-04T22:14:59.894Z,7.40
2022-12-04T22:17:31.574Z,7.00
2022-12-04T22:19:59.991Z,7.10
2022-12-04T22:22:28.307Z,7.20
2022-12-04T22:24:56.452Z,7.20
2022-12-04T22:27:24.663Z,7.20
2022-12-04T22:29:53.044Z,7.70
2022-12-04T22:32:21.418Z,7.20
2022-12-04T22:34:51.008Z,7.30
2022-12-04T22:37:19.196Z,7.40
2022-12-04T22:39:47.362Z,7.20
2022-12-04T22:42:15.549Z,7.30
2022-12-04T22:44:44.035Z,7.10
2022-12-04T22:47:12.244Z,7.20
2022-12-04T22:49:40.502Z,7.60
2022-12-04T22:52:10.337Z,7.10
2022-12-04T22:54:38.492Z,7.80
2022-12-04T22:57:06.692Z,7.30
2022-12-04T22:59:34.852Z,7.30
2022-12-04T23:02:03.103Z,7.20
2022-12-04T23:04:31.471Z,7.20
2022-12-04T23:06:59.686Z,7.20
2022-12-04T23:09:29.225Z,7.10
2022-12-04T23:11:57.855Z,7.30
2022-12-04T23:14:27.105Z,7.40
2022-12-04T23:16:55.362Z,7.40
2022-12-04T23:19:24.445Z,7.30
2022-12-04T23:21:56.973Z,7.90
2022-12-04T23:24:26.197Z,8.30
2022-12-04T23:26:55.760Z,7.70
2022-12-04T23:32:12.838Z,7.10
2022-12-04T23:34:41.043Z,8.10
2022-12-04T23:37:09.336Z,7.30
2022-12-04T23:39:37.499Z,7.20
2022-12-04T23:42:07.166Z,8.20
2022-12-04T23:44:35.358Z,7.40
2022-12-04T23:47:03.815Z,7.40
2022-12-04T23:49:32.046Z,7.50
2022-12-04T23:52:00.164Z,7.40
2022-12-04T23:54:30.216Z,7.30
2022-12-04T23:56:58.439Z,8.20
2022-12-04T23:59:27.991Z,7.30
